sensor_id;sensor_type;location;lat;lon;timestamp;pressure;altitude;pressure_sealevel;temperature;humidity
16030;BME280;34770;49.272;11.070;2023-08-17T00:00:11;97794.75;;;20.69;86.23
16030;BME280;34770;49.272;11.070;2023-08-17T00:02:39;97815.84;;;20.83;86.06
16030;BME280;34770;49.272;11.070;2023-08-17T00:05:05;97801.72;;;20.65;85.98
16030;BME280;34770;49.272;11.070;2023-08-17T00:07:34;97799.78;;;20.59;85.58
16030;BME280;34770;49.272;11.070;2023-08-17T00:09:59;97808.91;;;20.66;86.47
16030;BME280;34770;49.272;11.070;2023-08-17T00:12:25;97806.56;;;20.63;86.57
16030;BME280;34770;49.272;11.070;2023-08-17T00:14:51;97801.97;;;20.70;86.41
16030;BME280;34770;49.272;11.070;2023-08-17T00:17:16;97810.69;;;20.74;86.33
16030;BME280;34770;49.272;11.070;2023-08-17T00:19:42;97816.84;;;20.76;86.16
16030;BME280;34770;49.272;11.070;2023-08-17T00:22:07;97810.47;;;20.75;86.16
16030;BME280;34770;49.272;11.070;2023-08-17T00:24:33;97817.25;;;20.73;85.72
16030;BME280;34770;49.272;11.070;2023-08-17T00:26:58;97818.59;;;20.56;86.22
16030;BME280;34770;49.272;11.070;2023-08-17T00:29:24;97819.97;;;20.45;86.70
16030;BME280;34770;49.272;11.070;2023-08-17T00:31:49;97822.59;;;20.53;86.97
16030;BME280;34770;49.272;11.070;2023-08-17T00:34:14;97811.97;;;20.50;86.84
16030;BME280;34770;49.272;11.070;2023-08-17T00:36:40;97807.84;;;20.40;87.01
16030;BME280;34770;49.272;11.070;2023-08-17T00:39:05;97817.22;;;20.45;87.19
16030;BME280;34770;49.272;11.070;2023-08-17T00:41:30;97798.03;;;20.31;87.54
16030;BME280;34770;49.272;11.070;2023-08-17T00:43:56;97808.63;;;20.34;87.67
16030;BME280;34770;49.272;11.070;2023-08-17T00:46:22;97828.75;;;20.55;87.27
16030;BME280;34770;49.272;11.070;2023-08-17T00:48:49;97812.03;;;20.36;86.78
16030;BME280;34770;49.272;11.070;2023-08-17T00:51:14;97829.53;;;20.49;87.38
16030;BME280;34770;49.272;11.070;2023-08-17T00:53:40;97829.59;;;20.56;87.53
16030;BME280;34770;49.272;11.070;2023-08-17T00:56:07;97828.94;;;20.54;87.24
16030;BME280;34770;49.272;11.070;2023-08-17T00:58:33;97835.31;;;20.54;87.41
16030;BME280;34770;49.272;11.070;2023-08-17T01:00:59;97833.66;;;20.60;87.37
16030;BME280;34770;49.272;11.070;2023-08-17T01:03:28;97836.03;;;20.42;87.01
16030;BME280;34770;49.272;11.070;2023-08-17T01:05:53;97838.44;;;20.30;88.14
16030;BME280;34770;49.272;11.070;2023-08-17T01:08:18;97823.66;;;20.16;88.37
16030;BME280;34770;49.272;11.070;2023-08-17T01:10:52;97838.25;;;20.32;88.74
16030;BME280;34770;49.272;11.070;2023-08-17T01:13:56;97841.91;;;20.39;88.47
16030;BME280;34770;49.272;11.070;2023-08-17T01:16:35;97837.53;;;20.44;88.15
16030;BME280;34770;49.272;11.070;2023-08-17T01:19:07;97838.78;;;20.42;87.39
16030;BME280;34770;49.272;11.070;2023-08-17T01:21:41;97828.63;;;20.42;87.07
16030;BME280;34770;49.272;11.070;2023-08-17T01:24:11;97835.84;;;20.43;86.68
16030;BME280;34770;49.272;11.070;2023-08-17T01:26:36;97845.41;;;20.47;87.02
16030;BME280;34770;49.272;11.070;2023-08-17T01:29:02;97853.25;;;20.50;86.40
16030;BME280;34770;49.272;11.070;2023-08-17T01:31:31;97846.72;;;20.51;86.30
16030;BME280;34770;49.272;11.070;2023-08-17T01:34:04;97837.91;;;20.41;85.99
16030;BME280;34770;49.272;11.070;2023-08-17T01:36:37;97843.00;;;20.38;86.68
16030;BME280;34770;49.272;11.070;2023-08-17T01:39:05;97832.38;;;20.35;86.76
16030;BME280;34770;49.272;11.070;2023-08-17T01:41:31;97829.94;;;20.46;86.91
16030;BME280;34770;49.272;11.070;2023-08-17T01:43:58;97825.66;;;20.44;86.62
16030;BME280;34770;49.272;11.070;2023-08-17T01:46:29;97837.53;;;20.44;85.99
16030;BME280;34770;49.272;11.070;2023-08-17T01:48:55;97832.34;;;20.56;86.53
16030;BME280;34770;49.272;11.070;2023-08-17T01:51:21;97813.44;;;20.46;85.98
16030;BME280;34770;49.272;11.070;2023-08-17T01:53:47;97830.91;;;20.60;86.04
16030;BME280;34770;49.272;11.070;2023-08-17T01:56:12;97835.31;;;20.54;86.13
16030;BME280;34770;49.272;11.070;2023-08-17T01:58:37;97843.75;;;20.53;85.88
16030;BME280;34770;49.272;11.070;2023-08-17T02:01:03;97831.06;;;20.52;85.71
16030;BME280;34770;49.272;11.070;2023-08-17T02:03:28;97822.50;;;20.47;86.10
16030;BME280;34770;49.272;11.070;2023-08-17T02:05:56;97821.38;;;20.35;85.88
16030;BME280;34770;49.272;11.070;2023-08-17T02:08:21;97811.66;;;20.39;86.12
16030;BME280;34770;49.272;11.070;2023-08-17T02:10:46;97806.34;;;20.37;86.48
16030;BME280;34770;49.272;11.070;2023-08-17T02:13:12;97795.97;;;20.39;86.60
16030;BME280;34770;49.272;11.070;2023-08-17T02:15:38;97780.72;;;20.37;86.29
16030;BME280;34770;49.272;11.070;2023-08-17T02:18:04;97769.06;;;20.35;86.09
16030;BME280;34770;49.272;11.070;2023-08-17T02:20:30;97792.63;;;20.44;86.05
16030;BME280;34770;49.272;11.070;2023-08-17T02:22:55;97789.09;;;20.50;86.15
16030;BME280;34770;49.272;11.070;2023-08-17T02:25:20;97779.56;;;20.52;86.25
16030;BME280;34770;49.272;11.070;2023-08-17T02:27:46;97780.31;;;20.40;85.78
16030;BME280;34770;49.272;11.070;2023-08-17T02:30:12;97763.28;;;20.30;86.51
16030;BME280;34770;49.272;11.070;2023-08-17T02:32:37;97756.94;;;20.29;85.64
16030;BME280;34770;49.272;11.070;2023-08-17T02:35:03;97770.31;;;20.32;86.73
16030;BME280;34770;49.272;11.070;2023-08-17T02:37:28;97767.09;;;20.29;86.82
16030;BME280;34770;49.272;11.070;2023-08-17T02:39:54;97778.13;;;20.29;87.44
16030;BME280;34770;49.272;11.070;2023-08-17T02:42:19;97778.75;;;20.09;87.87
16030;BME280;34770;49.272;11.070;2023-08-17T02:44:44;97754.13;;;20.01;88.03
16030;BME280;34770;49.272;11.070;2023-08-17T02:47:10;97783.78;;;20.27;88.29
16030;BME280;34770;49.272;11.070;2023-08-17T02:49:35;97789.13;;;20.29;87.84
16030;BME280;34770;49.272;11.070;2023-08-17T02:52:01;97789.41;;;20.19;88.21
16030;BME280;34770;49.272;11.070;2023-08-17T02:54:26;97801.75;;;20.23;87.97
16030;BME280;34770;49.272;11.070;2023-08-17T02:56:51;97804.16;;;20.11;88.08
16030;BME280;34770;49.272;11.070;2023-08-17T02:59:17;97802.97;;;20.20;87.96
16030;BME280;34770;49.272;11.070;2023-08-17T03:01:44;97820.63;;;20.26;88.08
16030;BME280;34770;49.272;11.070;2023-08-17T03:04:09;97818.81;;;20.18;88.11
16030;BME280;34770;49.272;11.070;2023-08-17T03:06:34;97810.16;;;20.21;88.15
16030;BME280;34770;49.272;11.070;2023-08-17T03:08:59;97815.56;;;20.08;88.25
16030;BME280;34770;49.272;11.070;2023-08-17T03:11:25;97808.53;;;20.06;88.53
16030;BME280;34770;49.272;11.070;2023-08-17T03:13:50;97816.19;;;19.89;88.79
16030;BME280;34770;49.272;11.070;2023-08-17T03:16:15;97789.72;;;19.88;89.15
16030;BME280;34770;49.272;11.070;2023-08-17T03:18:41;97782.72;;;19.86;88.15
16030;BME280;34770;49.272;11.070;2023-08-17T03:21:06;97787.13;;;20.01;89.34
16030;BME280;34770;49.272;11.070;2023-08-17T03:23:32;97788.63;;;20.04;89.07
16030;BME280;34770;49.272;11.070;2023-08-17T03:25:58;97799.44;;;20.05;88.57
16030;BME280;34770;49.272;11.070;2023-08-17T03:28:23;97793.66;;;20.00;88.12
16030;BME280;34770;49.272;11.070;2023-08-17T03:30:50;97799.16;;;20.00;88.21
16030;BME280;34770;49.272;11.070;2023-08-17T03:33:15;97774.59;;;19.78;87.72
16030;BME280;34770;49.272;11.070;2023-08-17T03:35:41;97789.97;;;19.72;88.78
16030;BME280;34770;49.272;11.070;2023-08-17T03:38:06;97792.00;;;19.85;88.59
16030;BME280;34770;49.272;11.070;2023-08-17T03:40:31;97787.81;;;19.89;88.78
16030;BME280;34770;49.272;11.070;2023-08-17T03:42:57;97784.19;;;19.67;88.70
16030;BME280;34770;49.272;11.070;2023-08-17T03:45:22;97795.38;;;19.65;88.63
16030;BME280;34770;49.272;11.070;2023-08-17T03:47:47;97794.34;;;19.66;89.20
16030;BME280;34770;49.272;11.070;2023-08-17T03:50:12;97799.59;;;19.47;89.23
16030;BME280;34770;49.272;11.070;2023-08-17T03:52:38;97785.34;;;19.29;89.99
16030;BME280;34770;49.272;11.070;2023-08-17T03:55:03;97786.22;;;19.29;90.29
16030;BME280;34770;49.272;11.070;2023-08-17T03:57:31;97786.88;;;19.46;90.09
16030;BME280;34770;49.272;11.070;2023-08-17T03:59:57;97797.38;;;19.57;90.31
16030;BME280;34770;49.272;11.070;2023-08-17T04:02:22;97792.31;;;19.39;89.54
16030;BME280;34770;49.272;11.070;2023-08-17T04:04:47;97782.63;;;19.29;90.13
16030;BME280;34770;49.272;11.070;2023-08-17T04:07:20;97793.53;;;19.37;89.54
16030;BME280;34770;49.272;11.070;2023-08-17T04:09:45;97791.16;;;19.34;89.89
16030;BME280;34770;49.272;11.070;2023-08-17T04:12:11;97783.69;;;19.28;90.17
16030;BME280;34770;49.272;11.070;2023-08-17T04:14:36;97780.94;;;19.28;89.75
16030;BME280;34770;49.272;11.070;2023-08-17T04:17:01;97801.97;;;19.50;89.69
16030;BME280;34770;49.272;11.070;2023-08-17T04:19:27;97797.78;;;19.54;89.62
16030;BME280;34770;49.272;11.070;2023-08-17T04:21:52;97793.59;;;19.58;88.86
16030;BME280;34770;49.272;11.070;2023-08-17T04:24:17;97802.13;;;19.63;88.60
16030;BME280;34770;49.272;11.070;2023-08-17T04:26:43;97787.84;;;19.53;88.03
16030;BME280;34770;49.272;11.070;2023-08-17T04:29:08;97801.56;;;19.67;87.53
16030;BME280;34770;49.272;11.070;2023-08-17T04:31:33;97795.59;;;19.64;87.19
16030;BME280;34770;49.272;11.070;2023-08-17T04:33:59;97797.56;;;19.70;87.13
16030;BME280;34770;49.272;11.070;2023-08-17T04:36:24;97810.97;;;19.58;87.00
16030;BME280;34770;49.272;11.070;2023-08-17T04:38:49;97805.56;;;19.50;87.60
16030;BME280;34770;49.272;11.070;2023-08-17T04:41:15;97809.34;;;19.49;88.15
16030;BME280;34770;49.272;11.070;2023-08-17T04:43:42;97788.97;;;19.29;88.40
16030;BME280;34770;49.272;11.070;2023-08-17T04:46:08;97805.44;;;19.29;88.89
16030;BME280;34770;49.272;11.070;2023-08-17T04:48:33;97785.34;;;19.29;89.08
16030;BME280;34770;49.272;11.070;2023-08-17T04:50:58;97772.59;;;19.21;88.88
16030;BME280;34770;49.272;11.070;2023-08-17T04:53:24;97811.84;;;19.44;88.80
16030;BME280;34770;49.272;11.070;2023-08-17T04:55:49;97815.22;;;19.46;88.04
16030;BME280;34770;49.272;11.070;2023-08-17T04:58:14;97811.91;;;19.51;88.72
16030;BME280;34770;49.272;11.070;2023-08-17T05:00:40;97795.81;;;19.48;88.79
16030;BME280;34770;49.272;11.070;2023-08-17T05:03:06;97804.41;;;19.59;88.27
16030;BME280;34770;49.272;11.070;2023-08-17T05:05:31;97803.72;;;19.72;87.57
16030;BME280;34770;49.272;11.070;2023-08-17T05:07:57;97807.38;;;19.79;87.02
16030;BME280;34770;49.272;11.070;2023-08-17T05:10:22;97802.06;;;19.92;87.49
16030;BME280;34770;49.272;11.070;2023-08-17T05:12:48;97812.41;;;20.11;86.63
16030;BME280;34770;49.272;11.070;2023-08-17T05:15:13;97794.56;;;20.07;85.81
16030;BME280;34770;49.272;11.070;2023-08-17T05:17:39;97812.91;;;20.36;85.08
16030;BME280;34770;49.272;11.070;2023-08-17T05:20:05;97802.00;;;20.49;84.92
16030;BME280;34770;49.272;11.070;2023-08-17T05:22:30;97799.56;;;20.61;84.56
16030;BME280;34770;49.272;11.070;2023-08-17T05:24:55;97804.34;;;20.73;84.26
16030;BME280;34770;49.272;11.070;2023-08-17T05:27:21;97816.94;;;20.89;83.76
16030;BME280;34770;49.272;11.070;2023-08-17T05:29:46;97808.69;;;20.89;83.68
16030;BME280;34770;49.272;11.070;2023-08-17T05:32:11;97813.09;;;21.11;82.87
16030;BME280;34770;49.272;11.070;2023-08-17T05:34:37;97803.63;;;21.20;82.06
16030;BME280;34770;49.272;11.070;2023-08-17T05:37:02;97790.88;;;21.19;81.37
16030;BME280;34770;49.272;11.070;2023-08-17T05:39:28;97799.94;;;21.41;81.11
16030;BME280;34770;49.272;11.070;2023-08-17T05:41:53;97812.06;;;21.53;81.28
16030;BME280;34770;49.272;11.070;2023-08-17T05:44:19;97808.47;;;21.59;80.40
16030;BME280;34770;49.272;11.070;2023-08-17T05:46:44;97813.41;;;21.70;79.60
16030;BME280;34770;49.272;11.070;2023-08-17T05:49:09;97803.69;;;21.74;79.50
16030;BME280;34770;49.272;11.070;2023-08-17T05:51:35;97793.31;;;21.83;79.32
16030;BME280;34770;49.272;11.070;2023-08-17T05:54:00;97807.09;;;21.83;78.47
16030;BME280;34770;49.272;11.070;2023-08-17T05:56:25;97795.50;;;21.94;78.27
16030;BME280;34770;49.272;11.070;2023-08-17T05:58:51;97805.25;;;21.90;78.06
16030;BME280;34770;49.272;11.070;2023-08-17T06:01:16;97815.22;;;21.91;77.69
16030;BME280;34770;49.272;11.070;2023-08-17T06:03:42;97814.00;;;22.00;78.92
16030;BME280;34770;49.272;11.070;2023-08-17T06:06:07;97813.38;;;22.18;78.68
16030;BME280;34770;49.272;11.070;2023-08-17T06:08:33;97811.28;;;22.33;77.80
16030;BME280;34770;49.272;11.070;2023-08-17T06:10:58;97821.91;;;22.36;76.70
16030;BME280;34770;49.272;11.070;2023-08-17T06:13:23;97805.16;;;22.44;76.30
16030;BME280;34770;49.272;11.070;2023-08-17T06:15:49;97818.97;;;22.57;76.58
16030;BME280;34770;49.272;11.070;2023-08-17T06:18:15;97810.25;;;22.47;75.14
16030;BME280;34770;49.272;11.070;2023-08-17T06:20:40;97823.69;;;22.70;75.73
16030;BME280;34770;49.272;11.070;2023-08-17T06:23:06;97824.94;;;22.93;75.04
16030;BME280;34770;49.272;11.070;2023-08-17T06:25:31;97812.66;;;22.96;74.25
16030;BME280;34770;49.272;11.070;2023-08-17T06:27:56;97827.72;;;22.93;74.39
16030;BME280;34770;49.272;11.070;2023-08-17T06:30:22;97833.91;;;22.76;74.65
16030;BME280;34770;49.272;11.070;2023-08-17T06:32:47;97830.06;;;23.03;74.85
16030;BME280;34770;49.272;11.070;2023-08-17T06:35:13;97828.31;;;23.22;73.45
16030;BME280;34770;49.272;11.070;2023-08-17T06:37:38;97817.47;;;23.40;72.98
16030;BME280;34770;49.272;11.070;2023-08-17T06:40:04;97824.66;;;23.60;72.90
16030;BME280;34770;49.272;11.070;2023-08-17T06:42:30;97829.53;;;23.58;72.06
16030;BME280;34770;49.272;11.070;2023-08-17T06:44:56;97807.41;;;23.58;72.75
16030;BME280;34770;49.272;11.070;2023-08-17T06:47:21;97819.69;;;23.76;73.71
16030;BME280;34770;49.272;11.070;2023-08-17T06:49:46;97820.72;;;23.88;71.64
16030;BME280;34770;49.272;11.070;2023-08-17T06:52:12;97820.81;;;24.06;71.88
16030;BME280;34770;49.272;11.070;2023-08-17T06:54:37;97822.59;;;23.94;70.60
16030;BME280;34770;49.272;11.070;2023-08-17T06:57:03;97821.47;;;24.08;70.70
16030;BME280;34770;49.272;11.070;2023-08-17T06:59:28;97826.06;;;24.27;69.42
16030;BME280;34770;49.272;11.070;2023-08-17T07:01:53;97813.28;;;24.26;69.35
16030;BME280;34770;49.272;11.070;2023-08-17T07:04:19;97830.63;;;24.46;70.35
16030;BME280;34770;49.272;11.070;2023-08-17T07:06:44;97831.06;;;24.74;69.03
16030;BME280;34770;49.272;11.070;2023-08-17T07:09:37;97828.19;;;24.94;68.29
16030;BME280;34770;49.272;11.070;2023-08-17T07:12:03;97813.00;;;24.97;66.86
16030;BME280;34770;49.272;11.070;2023-08-17T07:14:29;97828.75;;;25.03;64.41
16030;BME280;34770;49.272;11.070;2023-08-17T07:16:54;97834.81;;;25.18;64.69
16030;BME280;34770;49.272;11.070;2023-08-17T07:19:19;97822.00;;;25.17;65.26
16030;BME280;34770;49.272;11.070;2023-08-17T07:21:45;97831.00;;;25.55;64.77
16030;BME280;34770;49.272;11.070;2023-08-17T07:24:14;97836.78;;;25.72;62.88
16030;BME280;34770;49.272;11.070;2023-08-17T07:26:40;97828.09;;;25.86;62.80
16030;BME280;34770;49.272;11.070;2023-08-17T07:29:06;97833.56;;;25.75;61.49
16030;BME280;34770;49.272;11.070;2023-08-17T07:31:31;97835.59;;;25.68;61.39
16030;BME280;34770;49.272;11.070;2023-08-17T07:34:01;97837.34;;;25.99;61.81
16030;BME280;34770;49.272;11.070;2023-08-17T07:36:27;97844.81;;;26.16;60.31
16030;BME280;34770;49.272;11.070;2023-08-17T07:38:52;97841.75;;;26.24;60.56
16030;BME280;34770;49.272;11.070;2023-08-17T07:41:17;97840.25;;;26.04;60.40
16030;BME280;34770;49.272;11.070;2023-08-17T07:43:43;97824.75;;;26.32;59.80
16030;BME280;34770;49.272;11.070;2023-08-17T07:46:08;97837.09;;;26.48;58.50
16030;BME280;34770;49.272;11.070;2023-08-17T07:48:33;97828.75;;;26.78;57.17
16030;BME280;34770;49.272;11.070;2023-08-17T07:50:59;97842.22;;;26.92;56.79
16030;BME280;34770;49.272;11.070;2023-08-17T07:53:25;97833.91;;;27.16;56.03
16030;BME280;34770;49.272;11.070;2023-08-17T07:55:50;97847.84;;;26.74;57.23
16030;BME280;34770;49.272;11.070;2023-08-17T07:58:16;97831.09;;;26.92;55.62
16030;BME280;34770;49.272;11.070;2023-08-17T08:00:41;97821.06;;;26.91;55.36
16030;BME280;34770;49.272;11.070;2023-08-17T08:03:06;97828.47;;;27.21;55.66
16030;BME280;34770;49.272;11.070;2023-08-17T08:05:32;97832.06;;;26.98;55.23
16030;BME280;34770;49.272;11.070;2023-08-17T08:07:57;97816.50;;;27.09;54.87
16030;BME280;34770;49.272;11.070;2023-08-17T08:10:22;97832.31;;;26.96;56.17
16030;BME280;34770;49.272;11.070;2023-08-17T08:12:48;97825.53;;;26.92;54.78
16030;BME280;34770;49.272;11.070;2023-08-17T08:15:13;97833.81;;;27.22;55.24
16030;BME280;34770;49.272;11.070;2023-08-17T08:17:38;97838.31;;;27.58;54.23
16030;BME280;34770;49.272;11.070;2023-08-17T08:20:04;97825.34;;;27.63;54.00
16030;BME280;34770;49.272;11.070;2023-08-17T08:22:30;97838.16;;;27.30;53.93
16030;BME280;34770;49.272;11.070;2023-08-17T08:24:55;97826.28;;;27.81;53.80
16030;BME280;34770;49.272;11.070;2023-08-17T08:27:21;97829.28;;;27.91;53.47
16030;BME280;34770;49.272;11.070;2023-08-17T08:29:46;97827.69;;;28.18;52.26
16030;BME280;34770;49.272;11.070;2023-08-17T08:32:12;97819.56;;;28.45;52.92
16030;BME280;34770;49.272;11.070;2023-08-17T08:34:37;97808.41;;;28.45;52.49
16030;BME280;34770;49.272;11.070;2023-08-17T08:37:03;97818.88;;;28.38;51.60
16030;BME280;34770;49.272;11.070;2023-08-17T08:39:28;97824.38;;;28.49;50.44
16030;BME280;34770;49.272;11.070;2023-08-17T08:41:54;97801.66;;;28.41;50.97
16030;BME280;34770;49.272;11.070;2023-08-17T08:44:20;97821.22;;;28.86;50.86
16030;BME280;34770;49.272;11.070;2023-08-17T08:46:45;97806.72;;;28.72;49.52
16030;BME280;34770;49.272;11.070;2023-08-17T08:49:11;97814.78;;;28.85;49.98
16030;BME280;34770;49.272;11.070;2023-08-17T08:51:44;97813.34;;;29.16;50.17
16030;BME280;34770;49.272;11.070;2023-08-17T08:54:13;97802.53;;;29.53;49.26
16030;BME280;34770;49.272;11.070;2023-08-17T08:56:42;97805.31;;;29.91;49.55
16030;BME280;34770;49.272;11.070;2023-08-17T08:59:09;97807.44;;;29.29;48.18
16030;BME280;34770;49.272;11.070;2023-08-17T09:01:36;97814.03;;;29.40;48.51
16030;BME280;34770;49.272;11.070;2023-08-17T09:04:02;97805.72;;;29.11;49.38
16030;BME280;34770;49.272;11.070;2023-08-17T09:06:29;97804.13;;;29.49;49.05
16030;BME280;34770;49.272;11.070;2023-08-17T09:08:55;97804.69;;;29.51;49.12
16030;BME280;34770;49.272;11.070;2023-08-17T09:11:21;97804.13;;;28.99;48.71
16030;BME280;34770;49.272;11.070;2023-08-17T09:13:47;97806.25;;;29.42;49.66
16030;BME280;34770;49.272;11.070;2023-08-17T09:16:12;97800.53;;;29.53;49.57
16030;BME280;34770;49.272;11.070;2023-08-17T09:18:38;97791.94;;;29.21;47.77
16030;BME280;34770;49.272;11.070;2023-08-17T09:21:03;97797.19;;;29.73;50.14
16030;BME280;34770;49.272;11.070;2023-08-17T09:23:28;97803.50;;;29.63;46.96
16030;BME280;34770;49.272;11.070;2023-08-17T09:25:53;97796.03;;;29.85;47.69
16030;BME280;34770;49.272;11.070;2023-08-17T09:28:25;97801.75;;;29.79;47.87
16030;BME280;34770;49.272;11.070;2023-08-17T09:31:01;97801.16;;;29.94;47.17
16030;BME280;34770;49.272;11.070;2023-08-17T09:33:32;97788.75;;;30.55;47.84
16030;BME280;34770;49.272;11.070;2023-08-17T09:35:59;97797.34;;;30.75;45.66
16030;BME280;34770;49.272;11.070;2023-08-17T09:38:25;97784.44;;;30.69;44.81
16030;BME280;34770;49.272;11.070;2023-08-17T09:40:51;97795.25;;;30.87;44.34
16030;BME280;34770;49.272;11.070;2023-08-17T09:43:18;97787.63;;;31.09;43.38
16030;BME280;34770;49.272;11.070;2023-08-17T09:45:44;97780.50;;;30.65;44.04
16030;BME280;34770;49.272;11.070;2023-08-17T09:48:15;97795.66;;;30.74;45.73
16030;BME280;34770;49.272;11.070;2023-08-17T09:50:43;97782.59;;;30.79;45.27
16030;BME280;34770;49.272;11.070;2023-08-17T09:53:15;97785.44;;;31.16;44.52
16030;BME280;34770;49.272;11.070;2023-08-17T09:55:42;97787.75;;;31.24;44.44
16030;BME280;34770;49.272;11.070;2023-08-17T09:58:08;97785.25;;;31.65;43.70
16030;BME280;34770;49.272;11.070;2023-08-17T10:00:34;97770.91;;;31.56;44.22
16030;BME280;34770;49.272;11.070;2023-08-17T10:03:02;97773.56;;;30.72;44.47
16030;BME280;34770;49.272;11.070;2023-08-17T10:05:30;97769.88;;;30.40;45.62
16030;BME280;34770;49.272;11.070;2023-08-17T10:07:57;97785.00;;;30.97;45.98
16030;BME280;34770;49.272;11.070;2023-08-17T10:10:26;97772.22;;;31.07;45.91
16030;BME280;34770;49.272;11.070;2023-08-17T10:13:10;97762.03;;;30.69;44.41
16030;BME280;34770;49.272;11.070;2023-08-17T10:16:14;97779.19;;;31.04;45.36
16030;BME280;34770;49.272;11.070;2023-08-17T10:19:06;97765.81;;;31.48;43.13
16030;BME280;34770;49.272;11.070;2023-08-17T10:21:36;97774.34;;;31.68;43.22
16030;BME280;34770;49.272;11.070;2023-08-17T10:24:03;97769.03;;;31.30;43.71
16030;BME280;34770;49.272;11.070;2023-08-17T10:26:29;97766.59;;;31.43;43.89
16030;BME280;34770;49.272;11.070;2023-08-17T10:28:55;97766.00;;;31.41;43.22
16030;BME280;34770;49.272;11.070;2023-08-17T10:31:23;97763.81;;;31.95;42.50
16030;BME280;34770;49.272;11.070;2023-08-17T10:33:49;97760.41;;;32.50;41.81
16030;BME280;34770;49.272;11.070;2023-08-17T10:36:15;97760.56;;;32.08;41.09
16030;BME280;34770;49.272;11.070;2023-08-17T10:38:41;97772.91;;;32.12;41.26
16030;BME280;34770;49.272;11.070;2023-08-17T10:43:35;97754.75;;;32.35;41.02
16030;BME280;34770;49.272;11.070;2023-08-17T10:46:17;97759.41;;;32.04;41.49
16030;BME280;34770;49.272;11.070;2023-08-17T10:48:43;97747.41;;;32.14;42.53
16030;BME280;34770;49.272;11.070;2023-08-17T10:51:09;97754.75;;;32.30;41.47
16030;BME280;34770;49.272;11.070;2023-08-17T10:53:38;97756.25;;;32.78;42.02
16030;BME280;34770;49.272;11.070;2023-08-17T10:56:11;97757.00;;;32.33;41.19
16030;BME280;34770;49.272;11.070;2023-08-17T10:58:37;97754.28;;;32.58;40.46
16030;BME280;34770;49.272;11.070;2023-08-17T11:01:02;97743.59;;;32.70;40.25
16030;BME280;34770;49.272;11.070;2023-08-17T11:03:28;97755.72;;;33.37;39.45
16030;BME280;34770;49.272;11.070;2023-08-17T11:05:55;97758.22;;;32.78;39.38
16030;BME280;34770;49.272;11.070;2023-08-17T11:08:38;97754.00;;;31.98;40.63
16030;BME280;34770;49.272;11.070;2023-08-17T11:11:12;97745.19;;;32.31;39.55
16030;BME280;34770;49.272;11.070;2023-08-17T11:13:39;97742.97;;;32.28;40.50
16030;BME280;34770;49.272;11.070;2023-08-17T11:16:06;97746.63;;;32.34;41.29
16030;BME280;34770;49.272;11.070;2023-08-17T11:18:32;97757.41;;;32.00;41.31
16030;BME280;34770;49.272;11.070;2023-08-17T11:20:58;97742.91;;;32.13;39.50
16030;BME280;34770;49.272;11.070;2023-08-17T11:23:24;97746.41;;;32.70;39.50
16030;BME280;34770;49.272;11.070;2023-08-17T11:25:52;97739.41;;;33.39;39.19
16030;BME280;34770;49.272;11.070;2023-08-17T11:28:18;97745.00;;;32.58;42.16
16030;BME280;34770;49.272;11.070;2023-08-17T11:30:43;97740.09;;;32.13;40.49
16030;BME280;34770;49.272;11.070;2023-08-17T11:33:09;97738.41;;;32.17;40.31
16030;BME280;34770;49.272;11.070;2023-08-17T11:35:35;97733.78;;;32.93;41.18
16030;BME280;34770;49.272;11.070;2023-08-17T11:38:01;97742.44;;;33.83;38.34
16030;BME280;34770;49.272;11.070;2023-08-17T11:40:28;97751.22;;;34.35;36.75
16030;BME280;34770;49.272;11.070;2023-08-17T11:42:53;97715.56;;;34.64;36.52
16030;BME280;34770;49.272;11.070;2023-08-17T11:45:19;97744.31;;;34.61;36.35
16030;BME280;34770;49.272;11.070;2023-08-17T11:47:46;97735.50;;;34.73;35.91
16030;BME280;34770;49.272;11.070;2023-08-17T11:50:13;97727.97;;;34.09;35.78
16030;BME280;34770;49.272;11.070;2023-08-17T11:52:38;97727.25;;;33.73;37.24
16030;BME280;34770;49.272;11.070;2023-08-17T11:55:05;97725.09;;;33.30;36.80
16030;BME280;34770;49.272;11.070;2023-08-17T11:57:32;97720.84;;;33.43;37.00
16030;BME280;34770;49.272;11.070;2023-08-17T11:59:58;97722.78;;;33.67;37.14
16030;BME280;34770;49.272;11.070;2023-08-17T12:02:24;97709.84;;;33.66;37.66
16030;BME280;34770;49.272;11.070;2023-08-17T12:04:50;97713.53;;;34.26;36.70
16030;BME280;34770;49.272;11.070;2023-08-17T12:07:17;97714.69;;;34.69;35.06
16030;BME280;34770;49.272;11.070;2023-08-17T12:09:46;97705.47;;;34.97;34.94
16030;BME280;34770;49.272;11.070;2023-08-17T12:12:11;97710.25;;;34.09;35.16
16030;BME280;34770;49.272;11.070;2023-08-17T12:14:41;97706.88;;;34.07;36.35
16030;BME280;34770;49.272;11.070;2023-08-17T12:17:07;97707.56;;;33.78;36.84
16030;BME280;34770;49.272;11.070;2023-08-17T12:19:32;97702.94;;;33.08;39.75
16030;BME280;34770;49.272;11.070;2023-08-17T12:21:57;97687.91;;;33.63;37.20
16030;BME280;34770;49.272;11.070;2023-08-17T12:24:26;97695.38;;;33.98;36.67
16030;BME280;34770;49.272;11.070;2023-08-17T12:26:51;97682.66;;;34.11;35.54
16030;BME280;34770;49.272;11.070;2023-08-17T12:29:16;97693.94;;;34.01;35.83
16030;BME280;34770;49.272;11.070;2023-08-17T12:31:42;97688.56;;;34.63;34.95
16030;BME280;34770;49.272;11.070;2023-08-17T12:34:07;97662.03;;;33.66;34.90
16030;BME280;34770;49.272;11.070;2023-08-17T12:36:34;97679.00;;;34.54;36.67
16030;BME280;34770;49.272;11.070;2023-08-17T12:39:00;97662.09;;;34.59;35.55
16030;BME280;34770;49.272;11.070;2023-08-17T12:41:25;97670.50;;;34.64;36.13
16030;BME280;34770;49.272;11.070;2023-08-17T12:43:51;97669.28;;;35.09;35.22
16030;BME280;34770;49.272;11.070;2023-08-17T12:46:19;97663.88;;;35.70;34.89
16030;BME280;34770;49.272;11.070;2023-08-17T12:48:44;97651.28;;;34.76;34.03